Time;durP1;ratioP1;P1;durP2;ratioP2;P2;SDS_P1;SDS_P2;PMS_P1;PMS_P2;Temp;Humidity;BMP_temperature;BMP_pressure;BME280_temperature;BME280_humidity;BME280_pressure;Samples;Min_cycle;Max_cycle;Signal;HPM_P1;HPM_P2
2021/12/16 00:01:44;;;;;;;163.73;150.05;;;;;;;1.83;100.00;102191.56;4945862;28;20055;-80
2021/12/16 00:07:00;;;;;;;134.38;121.55;;;;;;;1.52;100.00;102186.91;4913264;29;20054;-82
2021/12/16 00:09:38;;;;;;;129.23;117.00;;;;;;;1.48;100.00;102198.53;4972922;28;20087;-81
2021/12/16 00:31:46;;;;;;;237.40;201.23;;;;;;;1.18;100.00;102207.66;4955919;29;20133;-79
2021/12/16 00:34:14;;;;;;;192.95;176.70;;;;;;;1.07;100.00;102208.38;4972459;28;20130;-79
2021/12/16 00:36:43;;;;;;;183.52;168.07;;;;;;;0.91;100.00;102206.00;4974594;28;20105;-79
2021/12/16 00:39:14;;;;;;;190.25;174.20;;;;;;;1.06;100.00;102208.47;4972014;28;20129;-79
2021/12/16 00:41:43;;;;;;;188.82;169.98;;;;;;;0.98;100.00;102198.56;4963909;28;20113;-82
2021/12/16 00:44:21;;;;;;;142.20;127.07;;;;;;;1.01;100.00;102202.75;4967222;28;20062;-79
2021/12/16 00:47:02;;;;;;;132.02;119.07;;;;;;;1.03;100.00;102198.22;4967489;28;20083;-80
2021/12/16 00:49:36;;;;;;;133.10;120.22;;;;;;;1.06;100.00;102198.88;4970827;28;20051;-79
2021/12/16 00:55:09;;;;;;;157.93;143.48;;;;;;;0.87;100.00;102195.84;4966418;28;20157;-80
2021/12/16 00:57:37;;;;;;;151.45;137.32;;;;;;;0.59;100.00;102196.91;4963476;28;20083;-80
2021/12/16 01:00:10;;;;;;;149.20;135.48;;;;;;;0.54;100.00;102196.38;4971645;28;20047;-81
2021/12/16 01:02:55;;;;;;;153.57;139.20;;;;;;;0.49;100.00;102199.31;4970359;28;20055;-80
2021/12/16 01:34:14;;;;;;;135.82;122.25;;;;;;;-0.47;100.00;102189.06;4946874;28;20062;-80
2021/12/16 01:37:11;;;;;;;133.85;119.78;;;;;;;-0.38;100.00;102186.81;4952148;28;20138;-80
2021/12/16 01:40:02;;;;;;;134.85;121.55;;;;;;;-0.65;100.00;102185.00;4967070;28;20055;-80
2021/12/16 01:45:26;;;;;;;135.48;122.13;;;;;;;-0.83;100.00;102173.97;4962527;28;20063;-83
2021/12/16 01:51:17;;;;;;;128.13;114.93;;;;;;;-0.74;100.00;102180.38;4935954;28;20086;-79
2021/12/16 01:54:17;;;;;;;138.65;122.45;;;;;;;-0.90;100.00;102179.69;4970427;28;20411;-80
2021/12/16 01:56:48;;;;;;;149.57;134.48;;;;;;;-0.94;100.00;102171.19;4959613;28;20054;-80
2021/12/16 01:59:19;;;;;;;148.38;122.78;;;;;;;-0.85;100.00;102172.38;4966783;28;20063;-80
2021/12/16 02:01:47;;;;;;;125.72;112.47;;;;;;;-0.87;100.00;102175.09;4971952;28;20050;-82
2021/12/16 02:04:22;;;;;;;129.70;115.88;;;;;;;-0.97;100.00;102169.63;4964715;28;20130;-79
2021/12/16 02:07:05;;;;;;;129.20;113.05;;;;;;;-1.02;100.00;102173.44;4971075;28;20491;-80
2021/12/16 02:09:35;;;;;;;;;;;;;;;-1.05;100.00;102168.41;4971407;28;20109;-80
2021/12/16 02:12:11;;;;;;;123.13;109.93;;;;;;;-1.06;100.00;102171.94;4971310;28;19926;-81
2021/12/16 02:28:44;;;;;;;122.65;109.53;;;;;;;-1.50;100.00;102176.31;4967421;28;20558;-79
2021/12/16 02:31:23;;;;;;;133.60;117.13;;;;;;;-1.30;100.00;102171.66;4967516;28;20055;-78
2021/12/16 02:34:17;;;;;;;138.82;124.47;;;;;;;-1.39;100.00;102173.09;4969759;28;20082;-80
2021/12/16 02:36:43;;;;;;;120.65;107.95;;;;;;;-1.39;100.00;102179.13;4967773;28;20134;-79
2021/12/16 02:39:14;;;;;;;131.55;113.38;;;;;;;-1.23;100.00;102173.81;4969354;28;20476;-79
2021/12/16 02:41:43;;;;;;;114.63;102.25;;;;;;;-1.51;100.00;102176.41;4958458;28;20058;-81
2021/12/16 02:44:25;;;;;;;136.70;122.80;;;;;;;-1.26;100.00;102173.19;4971621;28;20054;-79
2021/12/16 02:49:47;;;;;;;137.75;123.35;;;;;;;-1.41;100.00;102173.16;4971362;28;20531;-79
2021/12/16 02:52:16;;;;;;;131.23;118.03;;;;;;;-1.58;100.00;102175.94;4969524;28;20441;-80
2021/12/16 02:54:44;;;;;;;131.85;118.00;;;;;;;-1.59;100.00;102166.44;4965289;28;20110;-81
2021/12/16 02:57:12;;;;;;;145.45;129.60;;;;;;;-1.54;100.00;102169.63;4958911;28;20055;-78
2021/12/16 02:59:40;;;;;;;194.85;134.13;;;;;;;-1.44;100.00;102168.13;4971310;28;20087;-81
2021/12/16 03:02:24;;;;;;;298.10;171.85;;;;;;;-1.28;100.00;102165.44;5092417;23;20133;-79
2021/12/16 03:04:54;;;;;;;318.38;171.80;;;;;;;-1.31;100.00;102162.19;4989846;28;20046;-79
2021/12/16 03:07:23;;;;;;;248.90;152.00;;;;;;;-1.52;100.00;102162.53;4991401;28;20059;-82
2021/12/16 03:10:34;;;;;;;190.52;139.73;;;;;;;-1.56;100.00;102157.63;4990043;28;20105;-81
2021/12/16 03:13:03;;;;;;;204.07;141.55;;;;;;;-1.47;100.00;102155.28;4990986;28;20525;-79
2021/12/16 03:15:48;;;;;;;227.48;203.20;;;;;;;-1.67;100.00;102146.06;4990669;28;20478;-80
2021/12/16 03:18:24;;;;;;;210.93;186.43;;;;;;;-1.46;100.00;102153.53;4991105;28;20046;-80
2021/12/16 03:20:57;;;;;;;201.38;180.25;;;;;;;-0.96;100.00;102150.41;4990442;28;20050;-81
2021/12/16 03:23:40;;;;;;;214.98;193.85;;;;;;;-1.28;100.00;102154.16;4990710;28;20450;-79
2021/12/16 03:26:40;;;;;;;181.98;162.95;;;;;;;-1.10;100.00;102154.81;4994051;28;20065;-80
2021/12/16 03:32:11;;;;;;;173.93;156.65;;;;;;;-0.68;100.00;102156.50;4993923;28;20061;-79
2021/12/16 03:34:46;;;;;;;170.65;154.35;;;;;;;-0.29;100.00;102153.09;4993866;28;20046;-80
2021/12/16 03:37:17;;;;;;;171.73;154.77;;;;;;;-0.14;100.00;102163.50;4993157;28;20425;-79
2021/12/16 03:39:57;;;;;;;165.38;149.75;;;;;;;-0.42;100.00;102164.44;4995998;28;20104;-80
2021/12/16 03:42:28;;;;;;;160.95;146.30;;;;;;;-0.48;100.00;102165.69;4995071;28;20105;-79
2021/12/16 03:45:05;;;;;;;138.27;125.00;;;;;;;-0.55;100.00;102162.59;4995043;28;20046;-80
2021/12/16 03:47:37;;;;;;;164.63;150.82;;;;;;;-0.36;100.00;102166.66;4986401;28;20477;-81
2021/12/16 03:50:08;;;;;;;153.80;140.15;;;;;;;-0.35;100.00;102157.88;4993590;28;20458;-81
2021/12/16 03:52:37;;;;;;;126.80;114.80;;;;;;;-0.29;100.00;102160.09;4994682;28;20058;-80
2021/12/16 03:55:07;;;;;;;129.95;117.63;;;;;;;-0.66;100.00;102164.25;4996415;28;20046;-81
2021/12/16 03:57:34;;;;;;;123.88;110.93;;;;;;;-0.70;100.00;102159.22;4994463;28;20479;-79
2021/12/16 04:00:05;;;;;;;121.78;107.70;;;;;;;-0.71;100.00;102167.13;4993147;28;20471;-79
2021/12/16 04:02:35;;;;;;;131.85;117.47;;;;;;;-0.57;100.00;102161.88;4986494;28;20121;-78
2021/12/16 04:05:04;;;;;;;129.45;116.18;;;;;;;-0.54;100.00;102166.06;4994422;28;20470;-80
2021/12/16 04:07:34;;;;;;;115.45;103.43;;;;;;;-0.62;100.00;102173.53;4993891;28;20113;-81
2021/12/16 04:10:01;;;;;;;119.47;107.63;;;;;;;-0.80;100.00;102160.72;4995750;28;20047;-79
2021/12/16 04:12:30;;;;;;;107.13;96.38;;;;;;;-1.02;100.00;102169.06;4991824;28;20471;-80
2021/12/16 04:14:59;;;;;;;125.28;112.95;;;;;;;-0.76;100.00;102163.97;4993003;28;20099;-81
2021/12/16 04:17:29;;;;;;;140.90;126.95;;;;;;;-0.58;100.00;102161.97;4993574;28;20050;-79
2021/12/16 04:19:59;;;;;;;130.90;118.60;;;;;;;-0.28;100.00;102172.22;4994076;28;20062;-80
2021/12/16 04:22:30;;;;;;;118.65;106.53;;;;;;;-0.28;100.00;102165.22;4994123;28;20081;-80
2021/12/16 04:25:01;;;;;;;119.70;107.47;;;;;;;-0.26;100.00;102171.19;4989314;28;20057;-80
2021/12/16 04:27:31;;;;;;;118.95;106.75;;;;;;;-0.30;100.00;102164.50;4984388;28;20050;-80
2021/12/16 04:29:58;;;;;;;124.13;112.35;;;;;;;-0.34;100.00;102164.78;4991184;28;20043;-79
2021/12/16 04:32:25;;;;;;;127.65;115.45;;;;;;;-0.42;100.00;102169.66;4993600;28;20141;-81
2021/12/16 04:34:52;;;;;;;120.88;108.53;;;;;;;-0.53;100.00;102160.75;4993634;28;20047;-80
2021/12/16 04:37:19;;;;;;;123.43;111.32;;;;;;;-0.72;100.00;102163.69;4988315;28;20054;-82
2021/12/16 04:39:47;;;;;;;117.60;106.40;;;;;;;-1.01;100.00;102160.28;4992593;28;20038;-81
2021/12/16 04:42:16;;;;;;;130.82;118.45;;;;;;;-0.72;100.00;102149.81;4993768;28;20120;-80
2021/12/16 04:44:44;;;;;;;138.38;125.25;;;;;;;-0.68;100.00;102159.13;4989017;28;20498;-81
2021/12/16 04:47:12;;;;;;;123.30;111.97;;;;;;;-0.61;100.00;102155.16;4993228;28;20053;-82
2021/12/16 04:49:39;;;;;;;116.40;104.68;;;;;;;-0.42;100.00;102162.69;4993506;28;20046;-79
2021/12/16 04:52:10;;;;;;;117.18;105.55;;;;;;;-0.65;100.00;102160.69;4993613;28;20066;-84
2021/12/16 04:54:37;;;;;;;118.15;106.47;;;;;;;-0.85;100.00;102167.16;4981488;28;20055;-81
2021/12/16 04:57:05;;;;;;;112.00;100.65;;;;;;;-0.86;100.00;102174.16;4979641;28;20105;-81
2021/12/16 04:59:35;;;;;;;114.85;103.22;;;;;;;-0.90;100.00;102167.47;4990936;28;20051;-82
2021/12/16 05:02:06;;;;;;;108.88;97.75;;;;;;;-1.02;100.00;102163.00;4988254;28;20404;-79
2021/12/16 05:04:34;;;;;;;112.82;101.20;;;;;;;-0.80;100.00;102176.38;4988542;28;20058;-79
2021/12/16 05:07:01;;;;;;;111.25;100.22;;;;;;;-0.86;100.00;102175.94;4993020;28;20113;-79
2021/12/16 05:12:16;;;;;;;109.30;97.82;;;;;;;-0.91;100.00;102168.38;4993660;28;20054;-81
2021/12/16 05:14:43;;;;;;;114.63;103.05;;;;;;;-0.82;100.00;102169.56;4992313;28;20053;-79
2021/12/16 05:17:23;;;;;;;116.28;104.05;;;;;;;-0.74;100.00;102176.00;4988072;28;20050;-81
2021/12/16 05:19:52;;;;;;;127.82;115.28;;;;;;;-0.71;100.00;102180.19;4993048;28;20061;-81
2021/12/16 05:25:01;;;;;;;132.25;119.95;;;;;;;-0.83;100.00;102181.78;4989100;28;20046;-80
2021/12/16 05:27:28;;;;;;;133.38;120.72;;;;;;;-0.95;100.00;102188.59;4989757;28;20261;-82
2021/12/16 05:29:55;;;;;;;130.93;118.22;;;;;;;-1.22;100.00;102185.91;4992459;28;20042;-82
2021/12/16 05:32:23;;;;;;;147.57;133.57;;;;;;;-1.05;100.00;102181.47;4992977;28;20467;-79
2021/12/16 05:34:50;;;;;;;148.20;133.52;;;;;;;-0.98;100.00;102187.97;4992982;28;20125;-80
2021/12/16 05:37:17;;;;;;;169.55;151.98;;;;;;;-0.96;100.00;102186.94;4988494;28;20447;-79
2021/12/16 05:39:44;;;;;;;162.07;145.77;;;;;;;-0.55;100.00;102177.44;4990505;28;20046;-79
2021/12/16 05:42:10;;;;;;;179.88;156.32;;;;;;;-0.16;100.00;102181.03;4989689;28;20128;-79
2021/12/16 05:44:37;;;;;;;175.32;137.82;;;;;;;0.68;100.00;102183.22;4990196;28;20054;-80
2021/12/16 05:47:04;;;;;;;159.88;125.65;;;;;;;0.95;100.00;102184.88;4990995;28;20047;-79
2021/12/16 05:49:33;;;;;;;127.68;113.93;;;;;;;-0.20;100.00;102190.00;4991666;28;20062;-81
2021/12/16 05:52:00;;;;;;;128.43;114.45;;;;;;;-0.39;100.00;102183.38;4986576;28;20053;-80
2021/12/16 05:54:26;;;;;;;129.30;115.70;;;;;;;-0.49;100.00;102183.09;4989796;28;20054;-81
2021/12/16 05:56:54;;;;;;;132.75;112.78;;;;;;;-0.39;100.00;102191.19;4990634;28;20463;-79
2021/12/16 05:59:21;;;;;;;130.07;116.32;;;;;;;-0.42;100.00;102185.31;4990426;28;20051;-79
2021/12/16 06:01:49;;;;;;;127.55;114.05;;;;;;;-0.46;100.00;102195.94;4988719;28;20050;-79
2021/12/16 06:04:17;;;;;;;125.80;111.93;;;;;;;-0.44;100.00;102192.41;4991594;28;20506;-80
2021/12/16 06:06:45;;;;;;;133.43;119.43;;;;;;;-0.35;100.00;102197.06;4992789;28;20093;-80
2021/12/16 06:09:12;;;;;;;138.45;123.38;;;;;;;-0.39;100.00;102204.25;4991349;28;20479;-81
2021/12/16 06:11:42;;;;;;;130.70;117.68;;;;;;;-0.50;100.00;102201.47;4985597;28;20648;-80
2021/12/16 06:14:16;;;;;;;125.20;111.72;;;;;;;-0.48;100.00;102204.84;4990152;28;20120;-80
2021/12/16 06:27:56;;;;;;;137.90;122.93;;;;;;;-0.44;100.00;102210.69;4990872;28;20077;-80
2021/12/16 06:30:28;;;;;;;150.80;134.93;;;;;;;-0.31;100.00;102209.78;4989044;28;20126;-81
2021/12/16 06:32:55;;;;;;;;;;;;;;;-0.21;100.00;102207.47;4990608;28;20120;-79
2021/12/16 06:35:30;;;;;;;127.53;114.32;;;;;;;-0.42;100.00;102211.41;4990060;28;19929;-79
2021/12/16 06:37:58;;;;;;;125.68;112.97;;;;;;;-0.32;100.00;102208.13;4991088;28;20137;-79
2021/12/16 06:40:26;;;;;;;136.13;121.57;;;;;;;-0.29;100.00;102200.09;4986462;28;20054;-79
2021/12/16 06:42:55;;;;;;;138.43;123.75;;;;;;;-0.39;100.00;102198.16;4990589;28;20054;-80
2021/12/16 06:45:26;;;;;;;134.90;121.55;;;;;;;-0.30;100.00;102195.00;4985565;28;20134;-80
2021/12/16 06:47:57;;;;;;;136.98;123.28;;;;;;;-0.20;100.00;102190.00;4990317;28;20049;-79
2021/12/16 06:50:34;;;;;;;214.10;195.57;;;;;;;3.64;100.00;102195.13;4988514;28;20056;-79
2021/12/16 06:53:04;;;;;;;126.22;113.50;;;;;;;0.69;100.00;102193.56;4989321;28;20050;-80
2021/12/16 06:55:38;;;;;;;154.70;139.65;;;;;;;-0.01;100.00;102203.53;4992709;28;20053;-79
2021/12/16 06:58:14;;;;;;;156.27;141.50;;;;;;;-0.12;100.00;102209.47;4989752;28;20057;-80
2021/12/16 07:00:42;;;;;;;158.93;142.85;;;;;;;0.77;100.00;102213.13;4991595;28;20050;-78
2021/12/16 07:03:28;;;;;;;144.57;128.77;;;;;;;-0.10;100.00;102220.63;4990879;28;20133;-80
2021/12/16 07:05:56;;;;;;;132.02;118.85;;;;;;;-0.27;100.00;102216.53;4991037;28;20050;-79
2021/12/16 07:08:25;;;;;;;144.40;129.55;;;;;;;-0.19;100.00;102223.84;4991143;28;20050;-79
2021/12/16 07:10:56;;;;;;;133.88;119.45;;;;;;;-0.21;100.00;102224.88;4992561;28;20062;-79
2021/12/16 07:13:29;;;;;;;139.85;124.97;;;;;;;-0.31;100.00;102222.03;4991196;28;20062;-80
2021/12/16 07:15:57;;;;;;;155.63;139.15;;;;;;;0.66;100.00;102226.94;4990933;28;20061;-80
2021/12/16 07:18:24;;;;;;;152.65;138.20;;;;;;;1.62;100.00;102232.44;4991312;28;20058;-79
2021/12/16 07:20:51;;;;;;;152.27;137.98;;;;;;;-0.25;100.00;102226.84;4990876;28;20108;-80
2021/12/16 07:23:18;;;;;;;151.88;136.90;;;;;;;-0.42;100.00;102230.56;4991215;28;20050;-79
2021/12/16 07:25:46;;;;;;;164.38;148.63;;;;;;;-0.14;100.00;102245.28;4992036;28;20085;-79
2021/12/16 07:28:13;;;;;;;157.40;141.70;;;;;;;-0.38;100.00;102239.84;4990655;28;20549;-79
2021/12/16 07:30:42;;;;;;;163.57;146.95;;;;;;;-0.39;100.00;102242.56;4990562;28;20059;-79
2021/12/16 07:33:11;;;;;;;164.13;147.90;;;;;;;-0.54;100.00;102242.59;4991032;28;20062;-80
2021/12/16 07:35:38;;;;;;;170.80;153.40;;;;;;;-0.65;100.00;102244.22;4990566;28;20059;-79
2021/12/16 07:38:07;;;;;;;184.90;165.13;;;;;;;-0.37;100.00;102251.97;4990703;28;20042;-80
2021/12/16 07:40:35;;;;;;;219.55;197.23;;;;;;;0.03;100.00;102245.97;4992156;28;20054;-79
2021/12/16 07:43:26;;;;;;;221.30;199.50;;;;;;;0.56;100.00;102255.47;4990951;28;20046;-79
2021/12/16 07:45:56;;;;;;;195.75;175.45;;;;;;;-0.18;100.00;102251.66;4987567;28;20051;-79
2021/12/16 07:48:26;;;;;;;186.52;167.60;;;;;;;-0.47;100.00;102243.88;4990874;28;20060;-80
2021/12/16 07:50:56;;;;;;;208.57;186.90;;;;;;;-0.60;100.00;102244.78;4990757;28;20046;-79
2021/12/16 07:53:23;;;;;;;240.18;215.02;;;;;;;-0.54;100.00;102239.16;4990641;28;20050;-80
2021/12/16 07:55:50;;;;;;;202.30;180.60;;;;;;;-0.47;100.00;102241.28;4991907;28;20060;-80
2021/12/16 07:58:19;;;;;;;207.93;186.27;;;;;;;-0.59;100.00;102239.44;4991053;28;20051;-79
2021/12/16 08:00:46;;;;;;;241.70;218.35;;;;;;;-0.57;100.00;102239.34;4990696;28;20133;-80
2021/12/16 08:03:15;;;;;;;213.43;190.65;;;;;;;-0.31;100.00;102237.69;4989927;28;20120;-82
2021/12/16 08:05:46;;;;;;;190.48;162.93;;;;;;;-0.30;100.00;102240.22;4990510;28;20100;-79
2021/12/16 08:08:13;;;;;;;174.63;155.30;;;;;;;-0.51;100.00;102228.53;4990842;28;20410;-78
2021/12/16 08:10:40;;;;;;;169.40;141.73;;;;;;;-0.37;100.00;102243.31;4993633;28;20137;-79
2021/12/16 08:13:07;;;;;;;171.15;148.20;;;;;;;-0.26;100.00;102240.84;4995523;28;20058;-80
2021/12/16 08:15:35;;;;;;;190.80;165.63;;;;;;;-0.36;100.00;102229.34;4995308;28;20054;-79
2021/12/16 08:18:03;;;;;;;188.20;162.02;;;;;;;-0.55;100.00;102227.84;4995172;28;20050;-79
2021/12/16 08:20:29;;;;;;;184.60;164.30;;;;;;;-0.24;100.00;102237.22;4994546;28;20053;-79
2021/12/16 08:22:56;;;;;;;209.75;163.95;;;;;;;-0.23;100.00;102232.81;4995075;28;20113;-79
2021/12/16 08:25:25;;;;;;;189.68;163.18;;;;;;;-0.14;100.00;102237.44;4987945;28;20050;-80
2021/12/16 08:27:52;;;;;;;185.90;159.25;;;;;;;-0.08;100.00;102242.28;4995226;28;20057;-79
2021/12/16 08:30:22;;;;;;;180.75;160.63;;;;;;;0.16;100.00;102244.22;4994938;28;20475;-80
2021/12/16 08:32:50;;;;;;;161.10;142.45;;;;;;;-0.26;100.00;102238.25;4994939;28;20454;-79
2021/12/16 08:35:17;;;;;;;186.50;167.70;;;;;;;-0.34;100.00;102232.66;4986732;28;20117;-80
2021/12/16 08:37:44;;;;;;;178.48;158.40;;;;;;;0.08;100.00;102236.06;4995755;28;20383;-80
2021/12/16 08:40:15;;;;;;;200.20;179.88;;;;;;;-0.28;100.00;102232.25;4996650;28;20430;-80
2021/12/16 08:42:42;;;;;;;208.70;188.48;;;;;;;-0.34;100.00;102230.06;4995383;28;20461;-80
2021/12/16 08:45:12;;;;;;;194.27;174.48;;;;;;;-0.08;100.00;102231.00;4995557;28;20100;-79
2021/12/16 08:47:38;;;;;;;192.73;173.07;;;;;;;0.23;100.00;102221.97;4995188;28;20050;-79
2021/12/16 08:50:10;;;;;;;190.88;171.18;;;;;;;-0.19;100.00;102218.63;4987036;28;20050;-80
2021/12/16 08:52:37;;;;;;;169.48;154.52;;;;;;;0.69;100.00;102217.09;4995355;28;20050;-81
2021/12/16 08:55:07;;;;;;;185.93;166.48;;;;;;;0.08;100.00;102223.81;4996690;28;20112;-81
2021/12/16 08:57:33;;;;;;;186.40;168.00;;;;;;;1.06;100.00;102211.97;4994959;28;20113;-79
2021/12/16 09:00:00;;;;;;;188.77;168.30;;;;;;;-0.17;100.00;102223.75;4995135;28;20120;-80
2021/12/16 09:02:27;;;;;;;196.15;174.57;;;;;;;0.32;100.00;102223.97;4995689;28;20128;-80
2021/12/16 09:04:54;;;;;;;201.43;180.00;;;;;;;0.30;100.00;102219.78;4995143;28;20058;-80
2021/12/16 09:07:22;;;;;;;186.40;167.30;;;;;;;0.04;100.00;102219.75;4994585;28;20132;-79
2021/12/16 09:09:49;;;;;;;199.63;171.80;;;;;;;0.10;100.00;102221.94;4995137;28;20112;-80
2021/12/16 09:12:49;;;;;;;198.25;166.40;;;;;;;0.03;100.00;102219.81;4994869;28;20046;-80
2021/12/16 09:15:17;;;;;;;176.95;142.20;;;;;;;-0.01;100.00;102225.25;4988086;28;20058;-78
2021/12/16 09:17:43;;;;;;;163.15;130.23;;;;;;;0.24;100.00;102231.47;4995253;28;20050;-79
2021/12/16 09:20:11;;;;;;;171.48;140.50;;;;;;;0.12;100.00;102227.06;4994533;28;20116;-81
2021/12/16 09:22:40;;;;;;;183.18;146.95;;;;;;;0.19;100.00;102223.97;4993792;28;20058;-79
2021/12/16 09:25:08;;;;;;;191.00;156.57;;;;;;;0.34;100.00;102223.88;4991768;28;20086;-79
2021/12/16 09:27:34;;;;;;;187.60;159.52;;;;;;;0.13;100.00;102224.38;4994103;28;20475;-80
2021/12/16 09:30:03;;;;;;;170.50;129.88;;;;;;;0.26;100.00;102220.94;4994612;28;20062;-79
2021/12/16 09:32:31;;;;;;;167.48;133.55;;;;;;;0.37;100.00;102213.22;4994642;28;20124;-77
2021/12/16 09:34:58;;;;;;;200.95;179.05;;;;;;;0.68;100.00;102212.81;4994128;28;20053;-79
2021/12/16 09:37:26;;;;;;;179.98;155.13;;;;;;;0.12;100.00;102212.25;4991484;28;20105;-79
2021/12/16 09:39:54;;;;;;;187.63;153.07;;;;;;;0.14;100.00;102218.19;4993764;28;20107;-78
2021/12/16 09:42:28;;;;;;;192.90;155.60;;;;;;;0.30;100.00;102215.38;4994442;28;20458;-79
2021/12/16 09:44:55;;;;;;;206.10;163.38;;;;;;;0.26;100.00;102213.09;4993949;28;20117;-79
2021/12/16 09:47:23;;;;;;;212.15;178.98;;;;;;;0.05;100.00;102213.56;4993796;28;20039;-78
2021/12/16 09:49:50;;;;;;;214.40;162.88;;;;;;;0.11;100.00;102207.94;4993968;28;20088;-78
2021/12/16 09:52:17;;;;;;;204.23;158.55;;;;;;;0.05;100.00;102210.97;4994415;28;20050;-79
2021/12/16 09:54:45;;;;;;;197.77;153.60;;;;;;;0.13;100.00;102213.09;4995055;28;20050;-80
2021/12/16 09:57:14;;;;;;;192.52;155.80;;;;;;;0.26;100.00;102213.09;4993868;28;20046;-79
2021/12/16 09:59:41;;;;;;;212.07;167.82;;;;;;;0.32;100.00;102200.44;4993989;28;20101;-80
2021/12/16 10:02:13;;;;;;;194.25;152.77;;;;;;;0.12;100.00;102207.03;4993383;28;20487;-80
2021/12/16 10:04:41;;;;;;;187.98;131.43;;;;;;;0.27;100.00;102212.16;4993894;28;20042;-78
2021/12/16 10:07:13;;;;;;;205.40;130.48;;;;;;;0.37;100.00;102208.00;4993561;28;20050;-78
2021/12/16 10:09:40;;;;;;;247.05;153.85;;;;;;;0.63;100.00;102199.19;4993735;28;20050;-78
2021/12/16 10:12:12;;;;;;;187.15;128.75;;;;;;;0.25;100.00;102204.44;4993226;28;20404;-80
2021/12/16 10:15:00;;;;;;;214.75;152.77;;;;;;;0.33;100.00;102201.28;4994093;28;20113;-79
2021/12/16 10:17:30;;;;;;;202.45;138.48;;;;;;;0.39;100.00;102196.50;4985674;28;20046;-79
2021/12/16 10:20:00;;;;;;;167.10;131.10;;;;;;;0.86;100.00;102189.78;4993754;28;20136;-78
2021/12/16 10:22:32;;;;;;;169.77;137.40;;;;;;;0.45;100.00;102190.88;4993104;28;20046;-78
2021/12/16 10:25:17;;;;;;;189.38;142.00;;;;;;;0.38;100.00;102183.53;4995000;28;20090;-79
2021/12/16 10:28:00;;;;;;;185.93;137.77;;;;;;;0.44;100.00;102175.25;4993378;28;20104;-79
2021/12/16 10:30:40;;;;;;;172.73;134.50;;;;;;;0.50;100.00;102177.47;4993024;28;20054;-79
2021/12/16 10:33:13;;;;;;;172.85;136.60;;;;;;;0.91;100.00;102166.75;4992272;28;20105;-79
2021/12/16 10:35:41;;;;;;;184.45;140.73;;;;;;;0.55;100.00;102166.69;4993404;28;20046;-80
2021/12/16 10:38:09;;;;;;;179.05;143.50;;;;;;;0.74;100.00;102168.88;4993403;28;20058;-79
2021/12/16 10:40:40;;;;;;;197.98;143.75;;;;;;;0.80;100.00;102163.22;4994452;28;20046;-77
2021/12/16 10:43:13;;;;;;;207.38;150.77;;;;;;;0.94;100.00;102160.47;4993276;28;20058;-80
2021/12/16 10:45:44;;;;;;;183.60;126.45;;;;;;;0.86;100.00;102163.63;4992938;28;20046;-79
2021/12/16 10:48:19;;;;;;;169.70;122.83;;;;;;;0.64;100.00;102156.44;4992899;28;20486;-78
2021/12/16 10:50:55;;;;;;;184.68;126.60;;;;;;;0.84;100.00;102159.44;4992927;28;20112;-78
2021/12/16 10:53:58;;;;;;;193.73;128.90;;;;;;;0.83;100.00;102153.38;4992886;28;20565;-77
2021/12/16 10:56:29;;;;;;;182.85;127.88;;;;;;;0.85;100.00;102148.06;4989580;28;20050;-78
2021/12/16 10:58:58;;;;;;;180.68;124.85;;;;;;;0.83;100.00;102157.78;4991820;28;20113;-79
2021/12/16 11:01:37;;;;;;;164.20;129.63;;;;;;;0.83;100.00;102163.00;4993216;28;20046;-79
2021/12/16 11:04:08;;;;;;;171.05;129.13;;;;;;;0.62;100.00;102160.09;4993450;28;20116;-78
2021/12/16 11:06:37;;;;;;;169.95;128.75;;;;;;;0.63;100.00;102156.53;4992838;28;20050;-81
2021/12/16 11:09:30;;;;;;;182.13;138.00;;;;;;;0.70;100.00;102149.97;4992759;28;20085;-79
2021/12/16 11:12:32;;;;;;;161.45;137.50;;;;;;;0.76;100.00;102152.16;4992638;28;20050;-79
2021/12/16 11:15:02;;;;;;;183.73;146.70;;;;;;;0.71;100.00;102153.41;4952531;28;20503;-78
2021/12/16 11:17:34;;;;;;;184.32;146.07;;;;;;;0.60;100.00;102146.28;4952720;29;20084;-77
2021/12/16 11:20:08;;;;;;;188.50;148.18;;;;;;;0.72;100.00;102150.66;4972875;28;20054;-80
2021/12/16 11:22:38;;;;;;;195.25;159.73;;;;;;;0.83;100.00;102147.31;4992749;28;20046;-79
2021/12/16 11:25:17;;;;;;;200.65;163.20;;;;;;;1.14;100.00;102149.41;4993869;28;20125;-81
2021/12/16 11:27:47;;;;;;;183.18;150.63;;;;;;;0.82;100.00;102151.72;4992171;28;20054;-81
2021/12/16 11:30:27;;;;;;;185.10;156.50;;;;;;;0.87;100.00;102148.75;4992794;28;20406;-81
2021/12/16 11:33:04;;;;;;;219.55;170.93;;;;;;;0.86;100.00;102145.31;4992720;28;20493;-80
2021/12/16 11:35:50;;;;;;;192.13;168.02;;;;;;;0.83;100.00;102145.53;4992637;28;20054;-78
2021/12/16 11:38:24;;;;;;;211.63;175.45;;;;;;;0.81;100.00;102144.78;4986401;28;20459;-79
2021/12/16 11:41:24;;;;;;;219.15;181.30;;;;;;;0.66;100.00;102138.00;4993836;28;20042;-78
2021/12/16 11:43:59;;;;;;;226.15;193.00;;;;;;;0.64;100.00;102143.38;4993346;28;20054;-78
2021/12/16 11:46:31;;;;;;;234.13;188.27;;;;;;;0.59;100.00;102139.41;4995103;28;20474;-77
2021/12/16 11:49:02;;;;;;;238.65;197.63;;;;;;;0.73;100.00;102138.41;4996735;28;20124;-79
2021/12/16 11:51:32;;;;;;;242.98;191.65;;;;;;;0.79;100.00;102135.41;4992676;28;20117;-79
2021/12/16 11:54:02;;;;;;;229.18;176.23;;;;;;;0.73;100.00;102134.03;4995778;28;20105;-79
2021/12/16 11:56:45;;;;;;;250.25;179.88;;;;;;;0.91;100.00;102135.38;4996569;28;20109;-79
2021/12/16 11:59:12;;;;;;;228.65;162.00;;;;;;;0.80;100.00;102132.66;4991513;28;20108;-79
2021/12/16 12:01:40;;;;;;;241.93;184.00;;;;;;;0.90;100.00;102128.44;4996438;28;20046;-79
2021/12/16 12:04:11;;;;;;;251.27;217.32;;;;;;;1.01;100.00;102124.25;4996185;28;20166;-79
2021/12/16 12:06:40;;;;;;;365.35;251.05;;;;;;;0.99;100.00;102126.97;4995661;28;20042;-79
2021/12/16 12:09:09;;;;;;;258.48;220.55;;;;;;;0.91;100.00;102122.28;4996105;28;20054;-79
2021/12/16 12:11:38;;;;;;;261.08;217.20;;;;;;;0.93;100.00;102130.00;4995737;28;20058;-77
2021/12/16 12:14:08;;;;;;;257.35;212.95;;;;;;;0.90;100.00;102122.38;4997375;28;20157;-77
2021/12/16 12:16:37;;;;;;;241.18;201.05;;;;;;;0.72;100.00;102119.28;4995782;28;20112;-79
2021/12/16 12:19:13;;;;;;;266.45;226.30;;;;;;;0.80;100.00;102113.53;4995984;28;20050;-79
2021/12/16 12:21:43;;;;;;;254.90;220.05;;;;;;;0.72;100.00;102118.44;4995758;28;20085;-78
2021/12/16 12:24:14;;;;;;;247.45;214.90;;;;;;;0.93;100.00;102119.56;4992509;28;20457;-79
2021/12/16 12:26:44;;;;;;;245.75;218.68;;;;;;;1.04;100.00;102114.41;4996091;28;20061;-79
2021/12/16 12:29:14;;;;;;;263.20;234.85;;;;;;;1.23;100.00;102120.94;4992165;28;20054;-79
2021/12/16 12:31:45;;;;;;;254.50;227.63;;;;;;;1.22;100.00;102116.66;4996613;28;20116;-78
2021/12/16 12:34:14;;;;;;;277.58;245.20;;;;;;;1.21;100.00;102110.59;4995183;28;20054;-78
2021/12/16 12:36:42;;;;;;;249.70;217.65;;;;;;;1.26;100.00;102113.69;4995763;28;20566;-80
2021/12/16 12:39:12;;;;;;;236.48;199.68;;;;;;;1.23;100.00;102111.28;4995508;28;20054;-80
2021/12/16 12:41:39;;;;;;;254.80;196.10;;;;;;;1.14;100.00;102109.34;4995748;28;20046;-79
2021/12/16 12:44:06;;;;;;;227.75;189.05;;;;;;;1.23;100.00;102111.28;4996857;28;20112;-78
2021/12/16 12:46:38;;;;;;;213.32;177.05;;;;;;;1.21;100.00;102113.19;4995293;28;20086;-78